Dulverton, United Kingdom
Current Conditions -  °F | °C
As of 3:50 PM on Sunday 21 Dec 2014 (Local Time) from EGTE Reporting Station
Broken Clouds Broken Clouds  
Wind Chill: 52°   Ceiling: 1800
Heat Index: 52°   Visibility: 6mi
Dew Point: 46°   Wind: 12mph
Humidity: 82%   Direction: 230°SW
Pressure: 30.3"   Gusts: NA
Location:  51.04°N, 3.55°W
Report Text: EGTE 211550Z 23010KT 9999 BKN018 11/08 Q1026
Loading
Personal Weather Stations






























Interactive Weather Map New forecast layout! Learn more

10-Day Weather Forecast

Advertisements
Track Severe Weather on mobile